sensor_id;sensor_type;location;lat;lon;timestamp;pressure;altitude;pressure_sealevel;temperature;humidity
75604;BME280;64187;51.010;13.792;2023-12-07T00:02:14;100429.81;;;2.76;88.72
75604;BME280;64187;51.010;13.792;2023-12-07T00:07:12;100439.50;;;2.63;88.86
75604;BME280;64187;51.010;13.792;2023-12-07T00:12:11;100430.56;;;2.55;88.87
75604;BME280;64187;51.010;13.792;2023-12-07T00:17:10;100442.28;;;2.54;90.23
75604;BME280;64187;51.010;13.792;2023-12-07T00:22:09;100446.81;;;2.54;89.85
75604;BME280;64187;51.010;13.792;2023-12-07T00:27:08;100446.53;;;2.85;89.04
75604;BME280;64187;51.010;13.792;2023-12-07T00:32:07;100448.03;;;3.09;86.83
75604;BME280;64187;51.010;13.792;2023-12-07T00:37:06;100439.13;;;3.02;86.96
75604;BME280;64187;51.010;13.792;2023-12-07T00:42:05;100442.53;;;2.74;86.97
75604;BME280;64187;51.010;13.792;2023-12-07T00:47:04;100439.06;;;3.17;87.13
75604;BME280;64187;51.010;13.792;2023-12-07T00:52:03;100432.34;;;2.85;87.45
75604;BME280;64187;51.010;13.792;2023-12-07T00:57:02;100440.59;;;3.26;85.60
75604;BME280;64187;51.010;13.792;2023-12-07T01:02:04;100443.56;;;2.95;87.62
75604;BME280;64187;51.010;13.792;2023-12-07T01:07:03;100441.28;;;3.35;85.80
75604;BME280;64187;51.010;13.792;2023-12-07T01:12:03;100458.44;;;3.19;85.21
75604;BME280;64187;51.010;13.792;2023-12-07T01:17:02;100455.03;;;3.10;86.37
75604;BME280;64187;51.010;13.792;2023-12-07T01:22:01;100467.16;;;3.06;86.51
75604;BME280;64187;51.010;13.792;2023-12-07T01:26:59;100468.66;;;2.94;87.30
75604;BME280;64187;51.010;13.792;2023-12-07T01:31:58;100466.03;;;3.00;87.06
75604;BME280;64187;51.010;13.792;2023-12-07T01:36:57;100479.78;;;3.34;85.75
75604;BME280;64187;51.010;13.792;2023-12-07T01:41:56;100475.91;;;3.00;86.95
75604;BME280;64187;51.010;13.792;2023-12-07T01:46:55;100493.84;;;3.42;85.23
75604;BME280;64187;51.010;13.792;2023-12-07T01:51:54;100495.41;;;2.94;87.76
75604;BME280;64187;51.010;13.792;2023-12-07T01:56:54;100484.41;;;3.04;87.31
75604;BME280;64187;51.010;13.792;2023-12-07T02:01:54;100494.28;;;3.24;86.42
75604;BME280;64187;51.010;13.792;2023-12-07T02:06:54;100496.56;;;3.28;86.02
75604;BME280;64187;51.010;13.792;2023-12-07T02:11:55;100487.66;;;3.20;86.54
75604;BME280;64187;51.010;13.792;2023-12-07T02:17:14;100491.97;;;3.00;87.61
75604;BME280;64187;51.010;13.792;2023-12-07T02:22:23;100502.88;;;3.20;86.53
75604;BME280;64187;51.010;13.792;2023-12-07T02:27:38;100508.34;;;3.12;87.37
75604;BME280;64187;51.010;13.792;2023-12-07T02:32:42;100511.81;;;3.27;86.15
75604;BME280;64187;51.010;13.792;2023-12-07T02:37:50;100507.06;;;3.08;87.38
75604;BME280;64187;51.010;13.792;2023-12-07T02:42:52;100515.03;;;3.22;85.85
75604;BME280;64187;51.010;13.792;2023-12-07T02:47:52;100518.22;;;3.11;86.97
75604;BME280;64187;51.010;13.792;2023-12-07T02:52:51;100522.97;;;3.31;85.84
75604;BME280;64187;51.010;13.792;2023-12-07T02:57:50;100534.97;;;3.20;86.30
75604;BME280;64187;51.010;13.792;2023-12-07T03:02:50;100521.50;;;3.50;85.65
75604;BME280;64187;51.010;13.792;2023-12-07T03:07:49;100527.19;;;3.04;86.87
75604;BME280;64187;51.010;13.792;2023-12-07T03:12:48;100535.63;;;3.65;85.03
75604;BME280;64187;51.010;13.792;2023-12-07T03:17:47;100541.13;;;2.99;88.16
75604;BME280;64187;51.010;13.792;2023-12-07T03:22:45;100546.59;;;3.27;86.05
75604;BME280;64187;51.010;13.792;2023-12-07T03:27:44;100549.63;;;3.24;87.03
75604;BME280;64187;51.010;13.792;2023-12-07T03:32:43;100550.59;;;3.16;87.51
75604;BME280;64187;51.010;13.792;2023-12-07T03:37:42;100546.16;;;3.45;85.71
75604;BME280;64187;51.010;13.792;2023-12-07T03:42:41;100550.31;;;3.11;87.98
75604;BME280;64187;51.010;13.792;2023-12-07T03:47:54;100547.44;;;3.13;88.31
75604;BME280;64187;51.010;13.792;2023-12-07T03:52:52;100548.81;;;3.45;86.38
75604;BME280;64187;51.010;13.792;2023-12-07T03:57:51;100558.88;;;3.21;86.99
75604;BME280;64187;51.010;13.792;2023-12-07T04:02:50;100558.41;;;3.18;87.64
75604;BME280;64187;51.010;13.792;2023-12-07T04:07:49;100551.13;;;3.70;85.72
75604;BME280;64187;51.010;13.792;2023-12-07T04:12:48;100553.78;;;3.27;85.95
75604;BME280;64187;51.010;13.792;2023-12-07T04:17:47;100560.06;;;3.19;86.92
75604;BME280;64187;51.010;13.792;2023-12-07T04:22:46;100564.88;;;3.23;87.32
75604;BME280;64187;51.010;13.792;2023-12-07T04:27:45;100571.72;;;3.11;87.81
75604;BME280;64187;51.010;13.792;2023-12-07T04:32:44;100581.34;;;3.27;87.34
75604;BME280;64187;51.010;13.792;2023-12-07T04:37:43;100582.63;;;3.46;85.30
75604;BME280;64187;51.010;13.792;2023-12-07T04:42:41;100589.25;;;3.35;85.65
75604;BME280;64187;51.010;13.792;2023-12-07T04:47:40;100591.72;;;3.15;86.55
75604;BME280;64187;51.010;13.792;2023-12-07T04:52:40;100598.28;;;2.98;88.13
75604;BME280;64187;51.010;13.792;2023-12-07T04:57:39;100600.00;;;3.20;88.01
75604;BME280;64187;51.010;13.792;2023-12-07T05:02:38;100600.47;;;3.24;87.83
75604;BME280;64187;51.010;13.792;2023-12-07T05:07:37;100604.41;;;3.43;86.77
75604;BME280;64187;51.010;13.792;2023-12-07T05:12:36;100602.50;;;3.58;85.46
75604;BME280;64187;51.010;13.792;2023-12-07T05:17:35;100600.50;;;2.94;88.52
75604;BME280;64187;51.010;13.792;2023-12-07T05:22:34;100606.09;;;3.14;87.28
75604;BME280;64187;51.010;13.792;2023-12-07T05:27:33;100609.16;;;8.76;100.00
75604;BME280;64187;51.010;13.792;2023-12-07T05:32:32;100609.94;;;9.81;68.45
75604;BME280;64187;51.010;13.792;2023-12-07T05:37:31;100609.94;;;6.60;69.36
75604;BME280;64187;51.010;13.792;2023-12-07T05:42:30;100618.38;;;5.22;75.04
75604;BME280;64187;51.010;13.792;2023-12-07T05:47:29;100633.28;;;4.34;79.72
75604;BME280;64187;51.010;13.792;2023-12-07T05:52:28;100630.59;;;4.05;82.51
75604;BME280;64187;51.010;13.792;2023-12-07T05:57:27;100635.03;;;3.40;85.63
75604;BME280;64187;51.010;13.792;2023-12-07T06:02:25;100625.41;;;3.61;84.31
75604;BME280;64187;51.010;13.792;2023-12-07T06:07:25;100625.72;;;3.36;86.36
75604;BME280;64187;51.010;13.792;2023-12-07T06:12:24;100633.22;;;3.62;85.12
75604;BME280;64187;51.010;13.792;2023-12-07T06:17:26;100645.91;;;3.54;86.76
75604;BME280;64187;51.010;13.792;2023-12-07T06:22:26;100649.06;;;3.28;87.19
75604;BME280;64187;51.010;13.792;2023-12-07T06:27:25;100655.31;;;3.50;86.20
75604;BME280;64187;51.010;13.792;2023-12-07T06:32:24;100657.63;;;3.38;87.00
75604;BME280;64187;51.010;13.792;2023-12-07T06:37:23;100660.84;;;3.84;84.87
75604;BME280;64187;51.010;13.792;2023-12-07T06:42:22;100658.81;;;3.50;86.45
75604;BME280;64187;51.010;13.792;2023-12-07T06:47:21;100664.63;;;3.54;86.67
75604;BME280;64187;51.010;13.792;2023-12-07T06:52:20;100664.16;;;3.50;86.48
75604;BME280;64187;51.010;13.792;2023-12-07T06:57:20;100663.41;;;3.71;85.50
75604;BME280;64187;51.010;13.792;2023-12-07T07:02:20;100670.59;;;3.92;85.16
75604;BME280;64187;51.010;13.792;2023-12-07T07:07:19;100673.41;;;3.84;84.93
75604;BME280;64187;51.010;13.792;2023-12-07T07:12:18;100675.59;;;3.95;84.32
75604;BME280;64187;51.010;13.792;2023-12-07T07:17:16;100674.31;;;3.91;84.58
75604;BME280;64187;51.010;13.792;2023-12-07T07:22:16;100679.09;;;3.96;83.96
75604;BME280;64187;51.010;13.792;2023-12-07T07:27:14;100677.09;;;3.47;86.38
75604;BME280;64187;51.010;13.792;2023-12-07T07:32:13;100681.69;;;3.53;86.57
75604;BME280;64187;51.010;13.792;2023-12-07T07:37:12;100683.47;;;3.60;86.14
75604;BME280;64187;51.010;13.792;2023-12-07T07:42:11;100683.38;;;3.90;84.95
75604;BME280;64187;51.010;13.792;2023-12-07T07:47:10;100675.84;;;3.79;86.05
75604;BME280;64187;51.010;13.792;2023-12-07T07:52:09;100675.28;;;3.83;86.62
75604;BME280;64187;51.010;13.792;2023-12-07T07:57:08;100682.63;;;3.45;87.60
75604;BME280;64187;51.010;13.792;2023-12-07T08:02:07;100685.66;;;3.57;88.10
75604;BME280;64187;51.010;13.792;2023-12-07T08:07:06;100688.19;;;3.43;88.75
75604;BME280;64187;51.010;13.792;2023-12-07T08:12:06;100682.94;;;3.72;87.51
75604;BME280;64187;51.010;13.792;2023-12-07T08:17:07;100683.03;;;3.78;86.98
75604;BME280;64187;51.010;13.792;2023-12-07T08:22:06;100682.75;;;4.09;86.07
75604;BME280;64187;51.010;13.792;2023-12-07T08:27:05;100698.13;;;4.01;86.05
75604;BME280;64187;51.010;13.792;2023-12-07T08:32:04;100702.13;;;4.12;85.35
75604;BME280;64187;51.010;13.792;2023-12-07T08:37:03;100693.97;;;4.20;86.05
75604;BME280;64187;51.010;13.792;2023-12-07T08:42:02;100706.31;;;3.99;85.95
75604;BME280;64187;51.010;13.792;2023-12-07T08:47:01;100704.69;;;3.98;86.31
75604;BME280;64187;51.010;13.792;2023-12-07T08:52:01;100708.63;;;4.02;86.45
75604;BME280;64187;51.010;13.792;2023-12-07T08:57:19;100710.56;;;4.08;86.77
75604;BME280;64187;51.010;13.792;2023-12-07T09:02:21;100722.81;;;4.18;82.43
75604;BME280;64187;51.010;13.792;2023-12-07T09:07:39;100720.38;;;4.44;82.81
75604;BME280;64187;51.010;13.792;2023-12-07T09:12:38;100719.38;;;4.45;81.67
75604;BME280;64187;51.010;13.792;2023-12-07T09:17:38;100731.31;;;4.43;80.81
75604;BME280;64187;51.010;13.792;2023-12-07T09:22:45;100731.75;;;4.68;80.70
75604;BME280;64187;51.010;13.792;2023-12-07T09:27:45;100734.50;;;4.81;80.31
75604;BME280;64187;51.010;13.792;2023-12-07T09:32:44;100731.84;;;4.81;80.57
75604;BME280;64187;51.010;13.792;2023-12-07T09:37:43;100730.03;;;4.88;80.18
75604;BME280;64187;51.010;13.792;2023-12-07T09:42:44;100728.72;;;4.78;80.84
75604;BME280;64187;51.010;13.792;2023-12-07T09:47:43;100736.69;;;4.71;81.11
75604;BME280;64187;51.010;13.792;2023-12-07T09:52:51;100730.09;;;4.95;80.27
75604;BME280;64187;51.010;13.792;2023-12-07T09:58:06;100730.97;;;5.02;79.42
75604;BME280;64187;51.010;13.792;2023-12-07T10:03:22;100732.38;;;4.27;80.47
75604;BME280;64187;51.010;13.792;2023-12-07T10:08:34;100725.16;;;4.49;80.40
75604;BME280;64187;51.010;13.792;2023-12-07T10:13:36;100724.66;;;4.60;80.90
75604;BME280;64187;51.010;13.792;2023-12-07T10:18:35;100725.63;;;4.31;80.85
75604;BME280;64187;51.010;13.792;2023-12-07T10:23:37;100727.66;;;4.29;80.49
75604;BME280;64187;51.010;13.792;2023-12-07T10:28:36;100725.31;;;4.62;80.34
75604;BME280;64187;51.010;13.792;2023-12-07T10:33:36;100712.81;;;4.76;78.75
75604;BME280;64187;51.010;13.792;2023-12-07T10:38:35;100714.50;;;4.77;78.17
75604;BME280;64187;51.010;13.792;2023-12-07T10:43:37;100715.22;;;4.43;78.79
75604;BME280;64187;51.010;13.792;2023-12-07T10:48:38;100714.72;;;4.82;78.73
75604;BME280;64187;51.010;13.792;2023-12-07T10:53:40;100708.47;;;5.03;76.76
75604;BME280;64187;51.010;13.792;2023-12-07T10:58:43;100713.72;;;4.62;78.39
75604;BME280;64187;51.010;13.792;2023-12-07T11:03:43;100709.28;;;5.04;77.24
75604;BME280;64187;51.010;13.792;2023-12-07T11:08:51;100722.53;;;4.77;78.00
75604;BME280;64187;51.010;13.792;2023-12-07T11:14:03;100718.38;;;3.88;80.56
75604;BME280;64187;51.010;13.792;2023-12-07T11:19:03;100726.38;;;4.03;81.69
75604;BME280;64187;51.010;13.792;2023-12-07T11:24:07;100725.38;;;4.26;80.44
75604;BME280;64187;51.010;13.792;2023-12-07T11:29:06;100719.03;;;4.12;80.39
75604;BME280;64187;51.010;13.792;2023-12-07T11:34:08;100715.59;;;4.18;79.77
75604;BME280;64187;51.010;13.792;2023-12-07T11:39:15;100716.69;;;3.87;81.83
75604;BME280;64187;51.010;13.792;2023-12-07T11:44:33;100704.03;;;4.39;79.68
75604;BME280;64187;51.010;13.792;2023-12-07T11:49:32;100712.41;;;4.29;80.82
75604;BME280;64187;51.010;13.792;2023-12-07T11:54:34;100709.31;;;3.89;80.76
75604;BME280;64187;51.010;13.792;2023-12-07T11:59:33;100705.16;;;4.45;80.86
75604;BME280;64187;51.010;13.792;2023-12-07T12:04:32;100708.25;;;4.05;80.93
75604;BME280;64187;51.010;13.792;2023-12-07T12:09:31;100713.06;;;3.59;83.80
75604;BME280;64187;51.010;13.792;2023-12-07T12:14:31;100710.91;;;3.84;82.45
75604;BME280;64187;51.010;13.792;2023-12-07T12:19:32;100703.78;;;3.91;81.96
75604;BME280;64187;51.010;13.792;2023-12-07T12:24:36;100710.91;;;3.84;81.68
75604;BME280;64187;51.010;13.792;2023-12-07T12:29:36;100708.88;;;3.86;81.12
75604;BME280;64187;51.010;13.792;2023-12-07T12:34:35;100702.88;;;3.84;81.29
75604;BME280;64187;51.010;13.792;2023-12-07T12:39:34;100698.84;;;3.73;82.24
75604;BME280;64187;51.010;13.792;2023-12-07T12:44:34;100688.56;;;3.77;82.36
75604;BME280;64187;51.010;13.792;2023-12-07T12:49:37;100698.41;;;3.91;81.91
75604;BME280;64187;51.010;13.792;2023-12-07T12:54:39;100694.09;;;3.90;81.37
75604;BME280;64187;51.010;13.792;2023-12-07T12:59:38;100694.41;;;4.02;81.46
75604;BME280;64187;51.010;13.792;2023-12-07T13:04:37;100693.91;;;4.35;81.63
75604;BME280;64187;51.010;13.792;2023-12-07T13:09:40;100690.38;;;3.91;82.28
75604;BME280;64187;51.010;13.792;2023-12-07T13:14:39;100696.34;;;4.08;81.13
75604;BME280;64187;51.010;13.792;2023-12-07T13:19:46;100694.53;;;3.94;81.96
75604;BME280;64187;51.010;13.792;2023-12-07T13:24:48;100691.72;;;4.02;82.87
75604;BME280;64187;51.010;13.792;2023-12-07T13:29:47;100683.78;;;4.30;82.73
75604;BME280;64187;51.010;13.792;2023-12-07T13:34:46;100687.31;;;4.59;81.92
75604;BME280;64187;51.010;13.792;2023-12-07T13:39:45;100686.44;;;4.80;81.11
75604;BME280;64187;51.010;13.792;2023-12-07T13:44:43;100692.47;;;4.88;79.82
75604;BME280;64187;51.010;13.792;2023-12-07T13:49:43;100692.50;;;4.60;81.07
75604;BME280;64187;51.010;13.792;2023-12-07T13:54:42;100698.91;;;4.38;83.19
75604;BME280;64187;51.010;13.792;2023-12-07T13:59:52;100706.88;;;4.52;81.74
75604;BME280;64187;51.010;13.792;2023-12-07T14:04:51;100710.78;;;4.78;80.81
75604;BME280;64187;51.010;13.792;2023-12-07T14:09:51;100722.97;;;4.59;82.25
75604;BME280;64187;51.010;13.792;2023-12-07T14:14:56;100717.13;;;4.49;82.46
75604;BME280;64187;51.010;13.792;2023-12-07T14:19:56;100707.59;;;4.68;81.09
75604;BME280;64187;51.010;13.792;2023-12-07T14:25:15;100712.59;;;4.49;81.31
75604;BME280;64187;51.010;13.792;2023-12-07T14:30:20;100709.38;;;4.32;82.91
75604;BME280;64187;51.010;13.792;2023-12-07T14:35:20;100706.53;;;4.90;79.42
75604;BME280;64187;51.010;13.792;2023-12-07T14:40:20;100708.66;;;4.45;82.51
75604;BME280;64187;51.010;13.792;2023-12-07T14:45:19;100699.19;;;4.49;81.31
75604;BME280;64187;51.010;13.792;2023-12-07T14:50:19;100711.16;;;4.75;80.24
75604;BME280;64187;51.010;13.792;2023-12-07T14:55:18;100701.84;;;4.71;80.78
75604;BME280;64187;51.010;13.792;2023-12-07T15:00:17;100697.38;;;4.78;80.95
75604;BME280;64187;51.010;13.792;2023-12-07T15:05:16;100697.84;;;4.60;80.34
75604;BME280;64187;51.010;13.792;2023-12-07T15:10:15;100699.72;;;4.60;80.72
75604;BME280;64187;51.010;13.792;2023-12-07T15:15:14;100703.63;;;4.36;81.75
75604;BME280;64187;51.010;13.792;2023-12-07T15:20:13;100705.19;;;5.08;79.58
75604;BME280;64187;51.010;13.792;2023-12-07T15:25:12;100712.97;;;4.96;79.45
75604;BME280;64187;51.010;13.792;2023-12-07T15:30:13;100713.72;;;4.62;80.54
75604;BME280;64187;51.010;13.792;2023-12-07T15:35:12;100709.72;;;4.29;81.48
75604;BME280;64187;51.010;13.792;2023-12-07T15:40:11;100711.91;;;4.19;83.04
75604;BME280;64187;51.010;13.792;2023-12-07T15:45:09;100710.50;;;4.45;81.63
75604;BME280;64187;51.010;13.792;2023-12-07T15:50:09;100709.47;;;4.24;82.59
75604;BME280;64187;51.010;13.792;2023-12-07T15:55:09;100709.41;;;4.39;82.10
75604;BME280;64187;51.010;13.792;2023-12-07T16:00:09;100697.53;;;4.27;81.78
75604;BME280;64187;51.010;13.792;2023-12-07T16:05:09;100697.78;;;4.53;81.10
75604;BME280;64187;51.010;13.792;2023-12-07T16:10:09;100684.13;;;4.27;81.37
75604;BME280;64187;51.010;13.792;2023-12-07T16:15:08;100695.00;;;4.19;81.71
75604;BME280;64187;51.010;13.792;2023-12-07T16:20:07;100693.06;;;4.34;82.00
75604;BME280;64187;51.010;13.792;2023-12-07T16:25:09;100693.47;;;4.31;82.23
75604;BME280;64187;51.010;13.792;2023-12-07T16:30:08;100697.97;;;4.09;83.52
75604;BME280;64187;51.010;13.792;2023-12-07T16:35:12;100698.03;;;4.37;82.63
75604;BME280;64187;51.010;13.792;2023-12-07T16:40:11;100711.09;;;4.40;82.01
75604;BME280;64187;51.010;13.792;2023-12-07T16:45:10;100691.69;;;4.38;82.58
75604;BME280;64187;51.010;13.792;2023-12-07T16:50:11;100693.34;;;4.18;82.88
75604;BME280;64187;51.010;13.792;2023-12-07T16:55:09;100690.97;;;4.29;82.89
75604;BME280;64187;51.010;13.792;2023-12-07T17:00:09;100694.53;;;4.58;82.14
75604;BME280;64187;51.010;13.792;2023-12-07T17:05:09;100695.94;;;4.54;81.55
75604;BME280;64187;51.010;13.792;2023-12-07T17:10:08;100710.47;;;4.66;80.99
75604;BME280;64187;51.010;13.792;2023-12-07T17:15:07;100709.69;;;4.23;82.77
75604;BME280;64187;51.010;13.792;2023-12-07T17:20:07;100699.72;;;4.38;82.22
75604;BME280;64187;51.010;13.792;2023-12-07T17:25:07;100711.50;;;4.01;84.29
75604;BME280;64187;51.010;13.792;2023-12-07T17:30:19;100702.75;;;3.92;84.87
75604;BME280;64187;51.010;13.792;2023-12-07T17:35:19;100709.16;;;4.13;84.55
75604;BME280;64187;51.010;13.792;2023-12-07T17:40:18;100705.31;;;4.43;82.76
75604;BME280;64187;51.010;13.792;2023-12-07T17:45:21;100717.31;;;4.26;82.79
75604;BME280;64187;51.010;13.792;2023-12-07T17:50:20;100724.38;;;3.91;84.62
75604;BME280;64187;51.010;13.792;2023-12-07T17:55:19;100736.56;;;3.93;84.70
75604;BME280;64187;51.010;13.792;2023-12-07T18:00:18;100732.47;;;3.97;84.61
75604;BME280;64187;51.010;13.792;2023-12-07T18:05:17;100717.47;;;3.81;84.84
75604;BME280;64187;51.010;13.792;2023-12-07T18:10:16;100716.69;;;3.36;86.66
75604;BME280;64187;51.010;13.792;2023-12-07T18:15:18;100716.19;;;3.62;86.70
75604;BME280;64187;51.010;13.792;2023-12-07T18:20:17;100700.69;;;3.73;85.11
75604;BME280;64187;51.010;13.792;2023-12-07T18:25:16;100715.69;;;3.88;84.31
75604;BME280;64187;51.010;13.792;2023-12-07T18:30:15;100692.56;;;4.45;82.41
75604;BME280;64187;51.010;13.792;2023-12-07T18:35:14;100706.63;;;4.26;82.62
75604;BME280;64187;51.010;13.792;2023-12-07T18:40:13;100692.75;;;4.22;82.11
75604;BME280;64187;51.010;13.792;2023-12-07T18:45:12;100680.19;;;4.01;82.50
75604;BME280;64187;51.010;13.792;2023-12-07T18:50:12;100682.69;;;4.03;83.16
75604;BME280;64187;51.010;13.792;2023-12-07T18:55:12;100677.00;;;3.91;83.86
75604;BME280;64187;51.010;13.792;2023-12-07T19:00:15;100668.19;;;3.97;82.15
75604;BME280;64187;51.010;13.792;2023-12-07T19:05:16;100665.44;;;4.12;81.94
75604;BME280;64187;51.010;13.792;2023-12-07T19:10:15;100668.56;;;3.73;83.71
75604;BME280;64187;51.010;13.792;2023-12-07T19:15:14;100673.13;;;4.15;81.98
75604;BME280;64187;51.010;13.792;2023-12-07T19:20:13;100684.81;;;4.07;82.68
75604;BME280;64187;51.010;13.792;2023-12-07T19:25:13;100670.22;;;3.74;83.90
75604;BME280;64187;51.010;13.792;2023-12-07T19:30:22;100667.88;;;3.85;83.76
75604;BME280;64187;51.010;13.792;2023-12-07T19:35:27;100656.03;;;3.58;85.22
75604;BME280;64187;51.010;13.792;2023-12-07T19:40:26;100648.91;;;3.65;84.63
75604;BME280;64187;51.010;13.792;2023-12-07T19:45:25;100645.13;;;3.60;84.79
75604;BME280;64187;51.010;13.792;2023-12-07T19:50:23;100635.09;;;3.47;86.46
75604;BME280;64187;51.010;13.792;2023-12-07T19:55:22;100630.66;;;3.54;84.87
75604;BME280;64187;51.010;13.792;2023-12-07T20:00:21;100618.88;;;3.70;84.69
75604;BME280;64187;51.010;13.792;2023-12-07T20:05:20;100616.09;;;3.42;86.58
75604;BME280;64187;51.010;13.792;2023-12-07T20:10:21;100603.34;;;3.59;85.81
75604;BME280;64187;51.010;13.792;2023-12-07T20:15:20;100600.19;;;3.34;85.84
75604;BME280;64187;51.010;13.792;2023-12-07T20:20:19;100597.81;;;3.60;84.85
75604;BME280;64187;51.010;13.792;2023-12-07T20:25:19;100597.47;;;3.49;85.10
75604;BME280;64187;51.010;13.792;2023-12-07T20:30:18;100587.75;;;3.48;84.62
75604;BME280;64187;51.010;13.792;2023-12-07T20:35:17;100571.34;;;3.51;83.73
75604;BME280;64187;51.010;13.792;2023-12-07T20:40:16;100570.38;;;3.58;84.43
75604;BME280;64187;51.010;13.792;2023-12-07T20:45:15;100568.16;;;3.40;84.90
75604;BME280;64187;51.010;13.792;2023-12-07T20:50:14;100562.00;;;3.25;85.84
75604;BME280;64187;51.010;13.792;2023-12-07T20:55:13;100554.38;;;3.07;86.38
75604;BME280;64187;51.010;13.792;2023-12-07T21:00:12;100548.47;;;4.89;78.66
75604;BME280;64187;51.010;13.792;2023-12-07T21:05:11;100546.75;;;3.62;83.27
75604;BME280;64187;51.010;13.792;2023-12-07T21:10:10;100535.34;;;3.53;84.34
75604;BME280;64187;51.010;13.792;2023-12-07T21:15:09;100534.66;;;3.30;85.97
75604;BME280;64187;51.010;13.792;2023-12-07T21:20:08;100527.31;;;3.53;84.04
75604;BME280;64187;51.010;13.792;2023-12-07T21:25:07;100516.53;;;3.47;83.80
75604;BME280;64187;51.010;13.792;2023-12-07T21:30:06;100510.47;;;3.59;83.86
75604;BME280;64187;51.010;13.792;2023-12-07T21:35:07;100504.16;;;3.24;84.23
75604;BME280;64187;51.010;13.792;2023-12-07T21:40:07;100498.81;;;3.24;84.51
75604;BME280;64187;51.010;13.792;2023-12-07T21:45:06;100492.75;;;3.37;84.55
75604;BME280;64187;51.010;13.792;2023-12-07T21:50:06;100485.81;;;3.21;84.88
75604;BME280;64187;51.010;13.792;2023-12-07T21:55:05;100496.06;;;3.17;84.73
75604;BME280;64187;51.010;13.792;2023-12-07T22:00:05;100485.19;;;3.19;85.44
75604;BME280;64187;51.010;13.792;2023-12-07T22:05:10;100481.00;;;2.95;86.06
75604;BME280;64187;51.010;13.792;2023-12-07T22:10:09;100477.97;;;2.83;85.42
75604;BME280;64187;51.010;13.792;2023-12-07T22:15:24;100477.50;;;2.94;86.18
75604;BME280;64187;51.010;13.792;2023-12-07T22:20:26;100468.88;;;3.14;84.64
75604;BME280;64187;51.010;13.792;2023-12-07T22:25:26;100483.25;;;2.91;85.12
75604;BME280;64187;51.010;13.792;2023-12-07T22:30:25;100486.94;;;2.75;85.93
75604;BME280;64187;51.010;13.792;2023-12-07T22:35:24;100479.44;;;2.86;85.70
75604;BME280;64187;51.010;13.792;2023-12-07T22:40:23;100502.63;;;2.78;85.11
75604;BME280;64187;51.010;13.792;2023-12-07T22:45:21;100500.38;;;2.97;84.54
75604;BME280;64187;51.010;13.792;2023-12-07T22:50:20;100494.44;;;2.65;85.13
75604;BME280;64187;51.010;13.792;2023-12-07T22:55:19;100496.56;;;2.55;84.87
75604;BME280;64187;51.010;13.792;2023-12-07T23:00:18;100494.09;;;2.24;87.12
75604;BME280;64187;51.010;13.792;2023-12-07T23:05:18;100474.91;;;2.20;87.10
75604;BME280;64187;51.010;13.792;2023-12-07T23:10:17;100468.94;;;2.18;87.53
75604;BME280;64187;51.010;13.792;2023-12-07T23:15:16;100466.34;;;2.25;87.57
75604;BME280;64187;51.010;13.792;2023-12-07T23:20:15;100458.34;;;2.25;87.21
75604;BME280;64187;51.010;13.792;2023-12-07T23:25:15;100449.50;;;2.09;88.30
75604;BME280;64187;51.010;13.792;2023-12-07T23:30:14;100454.84;;;2.09;87.88
75604;BME280;64187;51.010;13.792;2023-12-07T23:35:13;100445.75;;;2.04;88.86
75604;BME280;64187;51.010;13.792;2023-12-07T23:40:12;100435.66;;;1.76;89.33
75604;BME280;64187;51.010;13.792;2023-12-07T23:45:11;100425.19;;;1.89;89.54
75604;BME280;64187;51.010;13.792;2023-12-07T23:50:10;100425.09;;;1.98;88.74
75604;BME280;64187;51.010;13.792;2023-12-07T23:55:09;100414.44;;;1.45;91.98
